Terminal Aerodrome Forecast
Issued by NWS Wichita, KS

Home | Current Version | Previous Version | Text Only | Print | Product List | Glossary Off
Versions: 1 2 3 4 5 6 7 8 9 10 11 12 13 14 15 16 17 18 19 20 21 22

000
FTUS43 KICT 201100
TAFICT
TAF
KICT 201136Z 2012/2112 VRB03KT P6SM SKC
      TEMPO 2012/2014 4SM BR
     FM201500 01007KT P6SM SKC
     FM201700 06013KT P6SM SKC
     FM210000 06005KT P6SM SKC=

USA.gov is the U.S. government's official web portal to all federal, state and local government web resources and services.